sensor_id;sensor_type;location;lat;lon;timestamp;P1;durP1;ratioP1;P2;durP2;ratioP2
34373;SDS011;20637;55.770;37.592;2022-08-19T00:01:31;6.90;;;4.50;;
34373;SDS011;20637;55.770;37.592;2022-08-19T00:03:59;6.68;;;4.72;;
34373;SDS011;20637;55.770;37.592;2022-08-19T00:06:28;7.13;;;4.70;;
34373;SDS011;20637;55.770;37.592;2022-08-19T00:08:54;7.28;;;5.25;;
34373;SDS011;20637;55.770;37.592;2022-08-19T00:11:21;10.38;;;5.57;;
34373;SDS011;20637;55.770;37.592;2022-08-19T00:13:47;7.45;;;5.45;;
34373;SDS011;20637;55.770;37.592;2022-08-19T00:16:18;9.65;;;5.30;;
34373;SDS011;20637;55.770;37.592;2022-08-19T00:18:44;7.78;;;4.68;;
34373;SDS011;20637;55.770;37.592;2022-08-19T00:21:10;9.07;;;4.80;;
34373;SDS011;20637;55.770;37.592;2022-08-19T00:23:36;10.00;;;5.65;;
34373;SDS011;20637;55.770;37.592;2022-08-19T00:26:03;9.70;;;6.30;;
34373;SDS011;20637;55.770;37.592;2022-08-19T00:28:30;8.35;;;5.95;;
34373;SDS011;20637;55.770;37.592;2022-08-19T00:30:58;6.80;;;5.43;;
34373;SDS011;20637;55.770;37.592;2022-08-19T00:33:24;10.13;;;5.97;;
34373;SDS011;20637;55.770;37.592;2022-08-19T00:35:50;9.82;;;6.35;;
34373;SDS011;20637;55.770;37.592;2022-08-19T00:38:16;10.93;;;5.88;;
34373;SDS011;20637;55.770;37.592;2022-08-19T00:40:43;9.38;;;6.00;;
34373;SDS011;20637;55.770;37.592;2022-08-19T00:43:12;11.02;;;5.95;;
34373;SDS011;20637;55.770;37.592;2022-08-19T00:45:40;9.30;;;6.18;;
34373;SDS011;20637;55.770;37.592;2022-08-19T00:48:08;13.25;;;6.10;;
34373;SDS011;20637;55.770;37.592;2022-08-19T00:50:34;10.25;;;6.50;;
34373;SDS011;20637;55.770;37.592;2022-08-19T00:53:00;10.15;;;6.53;;
34373;SDS011;20637;55.770;37.592;2022-08-19T00:55:29;11.82;;;6.97;;
34373;SDS011;20637;55.770;37.592;2022-08-19T00:58:07;14.73;;;6.82;;
34373;SDS011;20637;55.770;37.592;2022-08-19T01:00:35;11.60;;;6.60;;
34373;SDS011;20637;55.770;37.592;2022-08-19T01:03:12;9.55;;;6.78;;
34373;SDS011;20637;55.770;37.592;2022-08-19T01:05:42;8.95;;;6.07;;
34373;SDS011;20637;55.770;37.592;2022-08-19T01:08:09;8.90;;;6.50;;
34373;SDS011;20637;55.770;37.592;2022-08-19T01:10:40;9.45;;;6.55;;
34373;SDS011;20637;55.770;37.592;2022-08-19T01:13:10;11.88;;;7.78;;
34373;SDS011;20637;55.770;37.592;2022-08-19T01:15:41;11.60;;;6.57;;
34373;SDS011;20637;55.770;37.592;2022-08-19T01:18:11;13.23;;;6.78;;
34373;SDS011;20637;55.770;37.592;2022-08-19T01:20:40;12.02;;;8.45;;
34373;SDS011;20637;55.770;37.592;2022-08-19T01:23:06;11.82;;;7.15;;
34373;SDS011;20637;55.770;37.592;2022-08-19T01:25:43;13.98;;;7.75;;
34373;SDS011;20637;55.770;37.592;2022-08-19T01:28:15;11.65;;;7.18;;
34373;SDS011;20637;55.770;37.592;2022-08-19T01:30:43;9.15;;;6.03;;
34373;SDS011;20637;55.770;37.592;2022-08-19T01:33:09;17.25;;;6.60;;
34373;SDS011;20637;55.770;37.592;2022-08-19T01:35:35;10.23;;;6.72;;
34373;SDS011;20637;55.770;37.592;2022-08-19T01:38:03;9.05;;;6.60;;
34373;SDS011;20637;55.770;37.592;2022-08-19T01:40:33;11.35;;;7.63;;
34373;SDS011;20637;55.770;37.592;2022-08-19T01:43:02;12.23;;;6.13;;
34373;SDS011;20637;55.770;37.592;2022-08-19T01:45:29;10.80;;;7.05;;
34373;SDS011;20637;55.770;37.592;2022-08-19T01:47:56;9.75;;;6.75;;
34373;SDS011;20637;55.770;37.592;2022-08-19T01:50:23;9.02;;;6.55;;
34373;SDS011;20637;55.770;37.592;2022-08-19T01:52:49;9.90;;;6.95;;
34373;SDS011;20637;55.770;37.592;2022-08-19T01:55:16;10.63;;;6.72;;
34373;SDS011;20637;55.770;37.592;2022-08-19T01:57:49;14.32;;;7.05;;
34373;SDS011;20637;55.770;37.592;2022-08-19T02:00:21;10.65;;;6.78;;
34373;SDS011;20637;55.770;37.592;2022-08-19T02:02:48;10.57;;;6.70;;
34373;SDS011;20637;55.770;37.592;2022-08-19T02:05:14;11.35;;;6.53;;
34373;SDS011;20637;55.770;37.592;2022-08-19T02:07:41;11.00;;;6.72;;
34373;SDS011;20637;55.770;37.592;2022-08-19T02:10:08;11.18;;;6.40;;
34373;SDS011;20637;55.770;37.592;2022-08-19T02:12:36;10.38;;;6.80;;
34373;SDS011;20637;55.770;37.592;2022-08-19T02:15:02;9.30;;;6.47;;
34373;SDS011;20637;55.770;37.592;2022-08-19T02:17:29;11.60;;;6.07;;
34373;SDS011;20637;55.770;37.592;2022-08-19T02:19:55;13.45;;;8.77;;
34373;SDS011;20637;55.770;37.592;2022-08-19T02:22:22;11.48;;;7.30;;
34373;SDS011;20637;55.770;37.592;2022-08-19T02:24:49;12.60;;;6.50;;
34373;SDS011;20637;55.770;37.592;2022-08-19T02:27:15;8.48;;;6.47;;
34373;SDS011;20637;55.770;37.592;2022-08-19T02:29:41;8.52;;;5.82;;
34373;SDS011;20637;55.770;37.592;2022-08-19T02:32:08;13.93;;;7.28;;
34373;SDS011;20637;55.770;37.592;2022-08-19T02:34:34;8.43;;;6.22;;
34373;SDS011;20637;55.770;37.592;2022-08-19T02:36:59;7.70;;;6.32;;
34373;SDS011;20637;55.770;37.592;2022-08-19T02:39:25;12.43;;;6.00;;
34373;SDS011;20637;55.770;37.592;2022-08-19T02:41:51;8.40;;;5.95;;
34373;SDS011;20637;55.770;37.592;2022-08-19T02:44:17;9.82;;;5.55;;
34373;SDS011;20637;55.770;37.592;2022-08-19T02:46:44;9.60;;;5.97;;
34373;SDS011;20637;55.770;37.592;2022-08-19T02:49:12;13.20;;;6.07;;
34373;SDS011;20637;55.770;37.592;2022-08-19T02:51:39;9.32;;;6.38;;
34373;SDS011;20637;55.770;37.592;2022-08-19T02:54:06;9.27;;;5.50;;
34373;SDS011;20637;55.770;37.592;2022-08-19T02:56:34;10.43;;;5.65;;
34373;SDS011;20637;55.770;37.592;2022-08-19T02:59:01;8.80;;;6.22;;
34373;SDS011;20637;55.770;37.592;2022-08-19T03:01:28;10.70;;;5.68;;
34373;SDS011;20637;55.770;37.592;2022-08-19T03:03:57;9.68;;;5.25;;
34373;SDS011;20637;55.770;37.592;2022-08-19T03:06:24;8.50;;;5.20;;
34373;SDS011;20637;55.770;37.592;2022-08-19T03:08:51;7.35;;;5.60;;
34373;SDS011;20637;55.770;37.592;2022-08-19T03:11:21;7.13;;;5.10;;
34373;SDS011;20637;55.770;37.592;2022-08-19T03:13:49;11.02;;;6.03;;
34373;SDS011;20637;55.770;37.592;2022-08-19T03:16:16;15.65;;;5.68;;
34373;SDS011;20637;55.770;37.592;2022-08-19T03:18:44;8.27;;;5.50;;
34373;SDS011;20637;55.770;37.592;2022-08-19T03:21:14;8.23;;;6.28;;
34373;SDS011;20637;55.770;37.592;2022-08-19T03:23:44;9.52;;;5.57;;
34373;SDS011;20637;55.770;37.592;2022-08-19T03:26:10;6.82;;;5.40;;
34373;SDS011;20637;55.770;37.592;2022-08-19T03:28:36;8.82;;;5.90;;
34373;SDS011;20637;55.770;37.592;2022-08-19T03:31:12;8.30;;;6.30;;
34373;SDS011;20637;55.770;37.592;2022-08-19T03:33:39;9.32;;;6.20;;
34373;SDS011;20637;55.770;37.592;2022-08-19T03:36:09;12.57;;;6.43;;
34373;SDS011;20637;55.770;37.592;2022-08-19T03:38:38;8.50;;;5.75;;
34373;SDS011;20637;55.770;37.592;2022-08-19T03:41:08;11.25;;;6.90;;
34373;SDS011;20637;55.770;37.592;2022-08-19T03:43:37;8.18;;;5.90;;
34373;SDS011;20637;55.770;37.592;2022-08-19T03:46:05;9.93;;;6.20;;
34373;SDS011;20637;55.770;37.592;2022-08-19T03:48:34;11.38;;;5.68;;
34373;SDS011;20637;55.770;37.592;2022-08-19T03:51:01;10.38;;;6.15;;
34373;SDS011;20637;55.770;37.592;2022-08-19T03:53:27;10.10;;;6.30;;
34373;SDS011;20637;55.770;37.592;2022-08-19T03:55:55;13.13;;;6.32;;
34373;SDS011;20637;55.770;37.592;2022-08-19T03:58:21;8.95;;;5.65;;
34373;SDS011;20637;55.770;37.592;2022-08-19T04:00:48;7.53;;;6.10;;
34373;SDS011;20637;55.770;37.592;2022-08-19T04:03:14;12.63;;;7.05;;
34373;SDS011;20637;55.770;37.592;2022-08-19T04:05:40;10.85;;;6.05;;
34373;SDS011;20637;55.770;37.592;2022-08-19T04:08:06;13.07;;;6.75;;
34373;SDS011;20637;55.770;37.592;2022-08-19T04:10:35;9.23;;;5.88;;
34373;SDS011;20637;55.770;37.592;2022-08-19T04:13:02;12.75;;;6.72;;
34373;SDS011;20637;55.770;37.592;2022-08-19T04:15:29;14.18;;;7.05;;
34373;SDS011;20637;55.770;37.592;2022-08-19T04:17:56;13.80;;;7.88;;
34373;SDS011;20637;55.770;37.592;2022-08-19T04:20:22;9.25;;;6.40;;
34373;SDS011;20637;55.770;37.592;2022-08-19T04:22:47;8.68;;;5.78;;
34373;SDS011;20637;55.770;37.592;2022-08-19T04:25:13;12.75;;;6.82;;
34373;SDS011;20637;55.770;37.592;2022-08-19T04:27:39;8.30;;;6.50;;
34373;SDS011;20637;55.770;37.592;2022-08-19T04:30:04;10.15;;;6.78;;
34373;SDS011;20637;55.770;37.592;2022-08-19T04:32:30;11.48;;;6.30;;
34373;SDS011;20637;55.770;37.592;2022-08-19T04:34:57;12.18;;;7.05;;
34373;SDS011;20637;55.770;37.592;2022-08-19T04:37:24;11.18;;;6.65;;
34373;SDS011;20637;55.770;37.592;2022-08-19T04:39:51;10.50;;;5.75;;
34373;SDS011;20637;55.770;37.592;2022-08-19T04:42:35;9.73;;;6.15;;
34373;SDS011;20637;55.770;37.592;2022-08-19T04:45:08;10.02;;;5.63;;
34373;SDS011;20637;55.770;37.592;2022-08-19T04:47:38;11.70;;;6.05;;
34373;SDS011;20637;55.770;37.592;2022-08-19T04:50:06;12.07;;;5.93;;
34373;SDS011;20637;55.770;37.592;2022-08-19T04:52:33;15.27;;;6.55;;
34373;SDS011;20637;55.770;37.592;2022-08-19T04:54:59;8.55;;;5.85;;
34373;SDS011;20637;55.770;37.592;2022-08-19T04:57:25;8.10;;;5.85;;
34373;SDS011;20637;55.770;37.592;2022-08-19T04:59:55;12.45;;;6.60;;
34373;SDS011;20637;55.770;37.592;2022-08-19T05:02:21;9.40;;;6.05;;
34373;SDS011;20637;55.770;37.592;2022-08-19T05:04:59;9.63;;;6.03;;
34373;SDS011;20637;55.770;37.592;2022-08-19T05:07:25;10.90;;;5.82;;
34373;SDS011;20637;55.770;37.592;2022-08-19T05:09:52;10.13;;;5.80;;
34373;SDS011;20637;55.770;37.592;2022-08-19T05:12:18;10.70;;;5.90;;
34373;SDS011;20637;55.770;37.592;2022-08-19T05:14:44;10.77;;;5.78;;
34373;SDS011;20637;55.770;37.592;2022-08-19T05:17:13;9.73;;;5.75;;
34373;SDS011;20637;55.770;37.592;2022-08-19T05:19:39;7.53;;;5.50;;
34373;SDS011;20637;55.770;37.592;2022-08-19T05:22:23;8.52;;;5.40;;
34373;SDS011;20637;55.770;37.592;2022-08-19T05:25:01;11.70;;;6.88;;
34373;SDS011;20637;55.770;37.592;2022-08-19T05:27:33;10.00;;;6.32;;
34373;SDS011;20637;55.770;37.592;2022-08-19T05:29:58;11.45;;;6.10;;
34373;SDS011;20637;55.770;37.592;2022-08-19T05:32:24;9.98;;;5.78;;
34373;SDS011;20637;55.770;37.592;2022-08-19T05:34:50;9.63;;;5.90;;
34373;SDS011;20637;55.770;37.592;2022-08-19T05:37:16;8.32;;;5.55;;
34373;SDS011;20637;55.770;37.592;2022-08-19T05:39:42;10.35;;;5.72;;
34373;SDS011;20637;55.770;37.592;2022-08-19T05:42:09;9.05;;;5.47;;
34373;SDS011;20637;55.770;37.592;2022-08-19T05:44:37;11.63;;;6.80;;
34373;SDS011;20637;55.770;37.592;2022-08-19T05:47:09;8.57;;;6.07;;
34373;SDS011;20637;55.770;37.592;2022-08-19T05:49:36;9.38;;;5.25;;
34373;SDS011;20637;55.770;37.592;2022-08-19T05:52:06;8.40;;;5.45;;
34373;SDS011;20637;55.770;37.592;2022-08-19T05:54:37;7.25;;;5.53;;
34373;SDS011;20637;55.770;37.592;2022-08-19T05:57:05;12.82;;;5.38;;
34373;SDS011;20637;55.770;37.592;2022-08-19T05:59:31;9.35;;;5.20;;
34373;SDS011;20637;55.770;37.592;2022-08-19T06:01:58;6.18;;;4.85;;
34373;SDS011;20637;55.770;37.592;2022-08-19T06:04:25;5.93;;;5.28;;
34373;SDS011;20637;55.770;37.592;2022-08-19T06:06:52;8.80;;;5.25;;
34373;SDS011;20637;55.770;37.592;2022-08-19T06:09:19;10.73;;;5.43;;
34373;SDS011;20637;55.770;37.592;2022-08-19T06:11:46;8.20;;;5.43;;
34373;SDS011;20637;55.770;37.592;2022-08-19T06:14:19;10.82;;;5.68;;
34373;SDS011;20637;55.770;37.592;2022-08-19T06:16:50;10.38;;;5.63;;
34373;SDS011;20637;55.770;37.592;2022-08-19T06:19:18;10.10;;;5.47;;
34373;SDS011;20637;55.770;37.592;2022-08-19T06:21:48;11.27;;;7.50;;
34373;SDS011;20637;55.770;37.592;2022-08-19T06:24:16;13.02;;;6.32;;
34373;SDS011;20637;55.770;37.592;2022-08-19T06:26:46;11.40;;;5.93;;
34373;SDS011;20637;55.770;37.592;2022-08-19T06:29:14;7.20;;;5.50;;
34373;SDS011;20637;55.770;37.592;2022-08-19T06:31:43;12.45;;;5.90;;
34373;SDS011;20637;55.770;37.592;2022-08-19T06:34:18;7.22;;;5.55;;
34373;SDS011;20637;55.770;37.592;2022-08-19T06:36:46;9.60;;;5.68;;
34373;SDS011;20637;55.770;37.592;2022-08-19T06:39:15;8.98;;;5.50;;
34373;SDS011;20637;55.770;37.592;2022-08-19T06:41:48;10.07;;;5.15;;
34373;SDS011;20637;55.770;37.592;2022-08-19T06:44:17;10.23;;;5.85;;
34373;SDS011;20637;55.770;37.592;2022-08-19T06:46:44;8.35;;;5.93;;
34373;SDS011;20637;55.770;37.592;2022-08-19T06:49:10;11.57;;;5.75;;
34373;SDS011;20637;55.770;37.592;2022-08-19T06:51:39;10.40;;;6.47;;
34373;SDS011;20637;55.770;37.592;2022-08-19T06:54:07;10.02;;;6.57;;
34373;SDS011;20637;55.770;37.592;2022-08-19T06:56:33;7.60;;;5.45;;
34373;SDS011;20637;55.770;37.592;2022-08-19T06:59:08;10.77;;;5.90;;
34373;SDS011;20637;55.770;37.592;2022-08-19T07:01:39;11.30;;;6.20;;
34373;SDS011;20637;55.770;37.592;2022-08-19T07:04:14;15.70;;;8.50;;
34373;SDS011;20637;55.770;37.592;2022-08-19T07:06:43;11.65;;;6.20;;
34373;SDS011;20637;55.770;37.592;2022-08-19T07:09:10;10.43;;;4.97;;
34373;SDS011;20637;55.770;37.592;2022-08-19T07:11:38;10.75;;;5.72;;
34373;SDS011;20637;55.770;37.592;2022-08-19T07:14:04;8.75;;;5.40;;
34373;SDS011;20637;55.770;37.592;2022-08-19T07:20:12;8.23;;;4.80;;
34373;SDS011;20637;55.770;37.592;2022-08-19T07:22:38;6.40;;;4.70;;
34373;SDS011;20637;55.770;37.592;2022-08-19T07:25:05;8.85;;;5.40;;
34373;SDS011;20637;55.770;37.592;2022-08-19T07:27:32;7.40;;;5.30;;
34373;SDS011;20637;55.770;37.592;2022-08-19T07:29:59;8.15;;;4.60;;
34373;SDS011;20637;55.770;37.592;2022-08-19T07:32:25;14.15;;;5.28;;
34373;SDS011;20637;55.770;37.592;2022-08-19T07:34:51;7.47;;;4.78;;
34373;SDS011;20637;55.770;37.592;2022-08-19T07:37:17;7.28;;;4.90;;
34373;SDS011;20637;55.770;37.592;2022-08-19T07:39:43;8.45;;;5.18;;
34373;SDS011;20637;55.770;37.592;2022-08-19T07:42:10;7.43;;;5.13;;
34373;SDS011;20637;55.770;37.592;2022-08-19T07:44:36;8.50;;;4.63;;
34373;SDS011;20637;55.770;37.592;2022-08-19T07:47:03;7.13;;;4.30;;
34373;SDS011;20637;55.770;37.592;2022-08-19T07:49:29;12.30;;;5.43;;
34373;SDS011;20637;55.770;37.592;2022-08-19T07:51:57;9.40;;;5.78;;
34373;SDS011;20637;55.770;37.592;2022-08-19T07:54:27;11.15;;;4.93;;
34373;SDS011;20637;55.770;37.592;2022-08-19T07:56:55;9.50;;;4.70;;
34373;SDS011;20637;55.770;37.592;2022-08-19T07:59:22;11.52;;;4.82;;
34373;SDS011;20637;55.770;37.592;2022-08-19T08:01:49;7.28;;;4.65;;
34373;SDS011;20637;55.770;37.592;2022-08-19T08:04:15;7.43;;;4.22;;
34373;SDS011;20637;55.770;37.592;2022-08-19T08:07:00;9.55;;;4.63;;
34373;SDS011;20637;55.770;37.592;2022-08-19T08:09:45;6.57;;;4.10;;
34373;SDS011;20637;55.770;37.592;2022-08-19T08:12:13;10.57;;;5.72;;
34373;SDS011;20637;55.770;37.592;2022-08-19T08:17:10;10.65;;;5.75;;
34373;SDS011;20637;55.770;37.592;2022-08-19T08:19:36;10.27;;;5.65;;
34373;SDS011;20637;55.770;37.592;2022-08-19T08:22:03;9.50;;;5.22;;
34373;SDS011;20637;55.770;37.592;2022-08-19T08:24:31;8.65;;;5.07;;
34373;SDS011;20637;55.770;37.592;2022-08-19T08:26:58;9.10;;;5.47;;
34373;SDS011;20637;55.770;37.592;2022-08-19T08:29:25;9.77;;;5.47;;
34373;SDS011;20637;55.770;37.592;2022-08-19T08:31:52;9.13;;;5.43;;
34373;SDS011;20637;55.770;37.592;2022-08-19T08:34:19;6.85;;;5.38;;
34373;SDS011;20637;55.770;37.592;2022-08-19T08:36:46;9.50;;;5.32;;
34373;SDS011;20637;55.770;37.592;2022-08-19T08:39:14;9.48;;;5.53;;
34373;SDS011;20637;55.770;37.592;2022-08-19T08:44:39;7.05;;;5.88;;
34373;SDS011;20637;55.770;37.592;2022-08-19T08:47:15;6.03;;;4.82;;
34373;SDS011;20637;55.770;37.592;2022-08-19T08:52:50;8.68;;;4.80;;
34373;SDS011;20637;55.770;37.592;2022-08-19T08:55:12;8.48;;;5.10;;
34373;SDS011;20637;55.770;37.592;2022-08-19T09:00:32;9.38;;;4.60;;
34373;SDS011;20637;55.770;37.592;2022-08-19T09:03:00;9.55;;;4.80;;
34373;SDS011;20637;55.770;37.592;2022-08-19T09:05:35;11.20;;;4.93;;
34373;SDS011;20637;55.770;37.592;2022-08-19T09:08:15;10.43;;;4.70;;
34373;SDS011;20637;55.770;37.592;2022-08-19T09:10:52;7.43;;;5.28;;
34373;SDS011;20637;55.770;37.592;2022-08-19T09:13:32;9.95;;;4.57;;
34373;SDS011;20637;55.770;37.592;2022-08-19T09:16:19;8.75;;;4.90;;
34373;SDS011;20637;55.770;37.592;2022-08-19T09:18:51;13.95;;;6.00;;
34373;SDS011;20637;55.770;37.592;2022-08-19T09:21:20;11.07;;;4.88;;
34373;SDS011;20637;55.770;37.592;2022-08-19T09:23:49;7.85;;;4.65;;
34373;SDS011;20637;55.770;37.592;2022-08-19T09:26:16;9.35;;;5.35;;
34373;SDS011;20637;55.770;37.592;2022-08-19T09:28:45;7.93;;;4.95;;
34373;SDS011;20637;55.770;37.592;2022-08-19T09:31:13;8.48;;;5.78;;
34373;SDS011;20637;55.770;37.592;2022-08-19T09:33:41;7.55;;;4.90;;
34373;SDS011;20637;55.770;37.592;2022-08-19T09:36:10;11.25;;;5.13;;
34373;SDS011;20637;55.770;37.592;2022-08-19T09:38:38;11.57;;;4.88;;
34373;SDS011;20637;55.770;37.592;2022-08-19T09:41:09;16.50;;;5.20;;
34373;SDS011;20637;55.770;37.592;2022-08-19T09:43:39;6.93;;;4.25;;
34373;SDS011;20637;55.770;37.592;2022-08-19T09:46:05;7.90;;;4.82;;
34373;SDS011;20637;55.770;37.592;2022-08-19T09:48:35;7.40;;;4.75;;
34373;SDS011;20637;55.770;37.592;2022-08-19T09:51:05;7.35;;;4.00;;
34373;SDS011;20637;55.770;37.592;2022-08-19T09:53:33;8.27;;;4.10;;
34373;SDS011;20637;55.770;37.592;2022-08-19T09:56:03;9.52;;;4.20;;
34373;SDS011;20637;55.770;37.592;2022-08-19T09:58:31;7.15;;;4.38;;
34373;SDS011;20637;55.770;37.592;2022-08-19T10:00:58;7.28;;;4.20;;
34373;SDS011;20637;55.770;37.592;2022-08-19T10:03:26;5.70;;;3.92;;
34373;SDS011;20637;55.770;37.592;2022-08-19T10:05:54;6.60;;;4.63;;
34373;SDS011;20637;55.770;37.592;2022-08-19T10:08:22;6.63;;;4.00;;
34373;SDS011;20637;55.770;37.592;2022-08-19T10:10:52;8.77;;;4.25;;
34373;SDS011;20637;55.770;37.592;2022-08-19T10:13:19;4.40;;;4.00;;
34373;SDS011;20637;55.770;37.592;2022-08-19T10:15:48;6.28;;;4.18;;
34373;SDS011;20637;55.770;37.592;2022-08-19T10:18:18;6.45;;;4.20;;
34373;SDS011;20637;55.770;37.592;2022-08-19T10:20:45;9.45;;;4.47;;
34373;SDS011;20637;55.770;37.592;2022-08-19T10:23:12;7.63;;;5.05;;
34373;SDS011;20637;55.770;37.592;2022-08-19T10:25:40;10.27;;;4.10;;
34373;SDS011;20637;55.770;37.592;2022-08-19T10:28:08;8.10;;;3.90;;
34373;SDS011;20637;55.770;37.592;2022-08-19T10:30:37;9.85;;;3.88;;
34373;SDS011;20637;55.770;37.592;2022-08-19T10:33:05;12.23;;;5.05;;
34373;SDS011;20637;55.770;37.592;2022-08-19T10:35:31;10.90;;;5.00;;
34373;SDS011;20637;55.770;37.592;2022-08-19T10:37:57;10.05;;;5.18;;
34373;SDS011;20637;55.770;37.592;2022-08-19T10:40:27;10.98;;;5.45;;
34373;SDS011;20637;55.770;37.592;2022-08-19T10:42:56;10.73;;;5.22;;
34373;SDS011;20637;55.770;37.592;2022-08-19T10:45:22;7.20;;;3.97;;
34373;SDS011;20637;55.770;37.592;2022-08-19T10:47:50;6.05;;;3.17;;
34373;SDS011;20637;55.770;37.592;2022-08-19T10:50:16;8.27;;;3.15;;
34373;SDS011;20637;55.770;37.592;2022-08-19T10:53:03;8.18;;;3.38;;
34373;SDS011;20637;55.770;37.592;2022-08-19T10:55:31;5.00;;;2.67;;
34373;SDS011;20637;55.770;37.592;2022-08-19T10:58:16;5.85;;;2.88;;
34373;SDS011;20637;55.770;37.592;2022-08-19T11:00:51;6.68;;;3.10;;
34373;SDS011;20637;55.770;37.592;2022-08-19T11:03:22;8.20;;;2.63;;
34373;SDS011;20637;55.770;37.592;2022-08-19T11:05:59;7.22;;;3.38;;
34373;SDS011;20637;55.770;37.592;2022-08-19T11:08:26;4.15;;;3.15;;
34373;SDS011;20637;55.770;37.592;2022-08-19T11:10:53;6.95;;;3.13;;
34373;SDS011;20637;55.770;37.592;2022-08-19T11:13:26;8.65;;;3.13;;
34373;SDS011;20637;55.770;37.592;2022-08-19T11:15:57;5.85;;;3.65;;
34373;SDS011;20637;55.770;37.592;2022-08-19T11:18:28;6.93;;;3.38;;
34373;SDS011;20637;55.770;37.592;2022-08-19T11:20:54;7.22;;;3.50;;
34373;SDS011;20637;55.770;37.592;2022-08-19T11:23:20;7.45;;;3.08;;
34373;SDS011;20637;55.770;37.592;2022-08-19T11:25:46;6.47;;;2.70;;
34373;SDS011;20637;55.770;37.592;2022-08-19T11:28:12;4.03;;;2.65;;
34373;SDS011;20637;55.770;37.592;2022-08-19T11:30:38;3.83;;;2.50;;
34373;SDS011;20637;55.770;37.592;2022-08-19T11:33:04;5.15;;;3.42;;
34373;SDS011;20637;55.770;37.592;2022-08-19T11:35:30;5.47;;;2.55;;
34373;SDS011;20637;55.770;37.592;2022-08-19T11:37:56;5.53;;;2.55;;
34373;SDS011;20637;55.770;37.592;2022-08-19T11:40:26;7.93;;;2.90;;
34373;SDS011;20637;55.770;37.592;2022-08-19T11:42:52;8.02;;;2.70;;
34373;SDS011;20637;55.770;37.592;2022-08-19T11:45:21;5.20;;;2.60;;
34373;SDS011;20637;55.770;37.592;2022-08-19T11:47:51;11.70;;;2.90;;
34373;SDS011;20637;55.770;37.592;2022-08-19T11:50:17;7.32;;;2.72;;
34373;SDS011;20637;55.770;37.592;2022-08-19T11:52:43;7.88;;;2.67;;
34373;SDS011;20637;55.770;37.592;2022-08-19T11:55:10;7.00;;;3.00;;
34373;SDS011;20637;55.770;37.592;2022-08-19T11:57:37;5.18;;;3.08;;
34373;SDS011;20637;55.770;37.592;2022-08-19T12:00:03;3.60;;;2.75;;
34373;SDS011;20637;55.770;37.592;2022-08-19T12:02:34;6.35;;;3.25;;
34373;SDS011;20637;55.770;37.592;2022-08-19T12:05:00;7.05;;;3.15;;
34373;SDS011;20637;55.770;37.592;2022-08-19T12:07:28;5.15;;;3.00;;
34373;SDS011;20637;55.770;37.592;2022-08-19T12:09:58;5.28;;;3.28;;
34373;SDS011;20637;55.770;37.592;2022-08-19T12:12:25;10.13;;;3.83;;
34373;SDS011;20637;55.770;37.592;2022-08-19T12:14:51;5.68;;;3.00;;
34373;SDS011;20637;55.770;37.592;2022-08-19T12:17:25;8.65;;;3.65;;
34373;SDS011;20637;55.770;37.592;2022-08-19T12:19:52;7.13;;;3.50;;
34373;SDS011;20637;55.770;37.592;2022-08-19T12:22:19;4.18;;;3.03;;
34373;SDS011;20637;55.770;37.592;2022-08-19T12:24:45;7.10;;;3.80;;
34373;SDS011;20637;55.770;37.592;2022-08-19T12:27:11;9.95;;;3.63;;
34373;SDS011;20637;55.770;37.592;2022-08-19T12:29:37;6.85;;;3.53;;
34373;SDS011;20637;55.770;37.592;2022-08-19T12:32:03;6.45;;;3.63;;
34373;SDS011;20637;55.770;37.592;2022-08-19T12:34:29;10.00;;;4.70;;
34373;SDS011;20637;55.770;37.592;2022-08-19T12:36:57;5.28;;;3.17;;
34373;SDS011;20637;55.770;37.592;2022-08-19T12:39:24;5.57;;;3.92;;
34373;SDS011;20637;55.770;37.592;2022-08-19T12:41:50;9.93;;;3.55;;
34373;SDS011;20637;55.770;37.592;2022-08-19T12:44:16;8.43;;;3.53;;
34373;SDS011;20637;55.770;37.592;2022-08-19T12:46:42;5.10;;;3.83;;
34373;SDS011;20637;55.770;37.592;2022-08-19T12:49:08;7.90;;;4.15;;
34373;SDS011;20637;55.770;37.592;2022-08-19T12:51:33;6.50;;;4.22;;
34373;SDS011;20637;55.770;37.592;2022-08-19T12:53:59;4.40;;;3.45;;
34373;SDS011;20637;55.770;37.592;2022-08-19T12:56:24;8.77;;;3.65;;
34373;SDS011;20637;55.770;37.592;2022-08-19T12:58:50;4.65;;;3.55;;
34373;SDS011;20637;55.770;37.592;2022-08-19T13:01:16;3.97;;;3.47;;
34373;SDS011;20637;55.770;37.592;2022-08-19T13:03:44;9.60;;;4.38;;
34373;SDS011;20637;55.770;37.592;2022-08-19T13:06:10;8.90;;;3.83;;
34373;SDS011;20637;55.770;37.592;2022-08-19T13:08:38;8.38;;;3.60;;
34373;SDS011;20637;55.770;37.592;2022-08-19T13:11:11;7.90;;;3.60;;
34373;SDS011;20637;55.770;37.592;2022-08-19T13:13:40;4.00;;;3.53;;
34373;SDS011;20637;55.770;37.592;2022-08-19T13:16:08;7.75;;;3.28;;
34373;SDS011;20637;55.770;37.592;2022-08-19T13:18:36;10.60;;;4.18;;
34373;SDS011;20637;55.770;37.592;2022-08-19T13:21:03;5.97;;;3.67;;
34373;SDS011;20637;55.770;37.592;2022-08-19T13:23:31;7.55;;;3.92;;
34373;SDS011;20637;55.770;37.592;2022-08-19T13:25:58;6.43;;;3.70;;
34373;SDS011;20637;55.770;37.592;2022-08-19T13:28:25;4.50;;;3.45;;
34373;SDS011;20637;55.770;37.592;2022-08-19T13:30:51;6.63;;;3.63;;
34373;SDS011;20637;55.770;37.592;2022-08-19T13:33:35;5.22;;;3.25;;
34373;SDS011;20637;55.770;37.592;2022-08-19T13:36:01;6.10;;;3.50;;
34373;SDS011;20637;55.770;37.592;2022-08-19T13:38:27;7.78;;;3.90;;
34373;SDS011;20637;55.770;37.592;2022-08-19T13:40:53;5.47;;;3.50;;
34373;SDS011;20637;55.770;37.592;2022-08-19T13:43:21;6.47;;;4.32;;
34373;SDS011;20637;55.770;37.592;2022-08-19T13:45:51;5.82;;;4.25;;
34373;SDS011;20637;55.770;37.592;2022-08-19T13:48:21;6.28;;;4.75;;
34373;SDS011;20637;55.770;37.592;2022-08-19T13:50:47;8.32;;;4.43;;
34373;SDS011;20637;55.770;37.592;2022-08-19T13:53:13;6.07;;;4.13;;
34373;SDS011;20637;55.770;37.592;2022-08-19T13:55:40;7.15;;;4.10;;
34373;SDS011;20637;55.770;37.592;2022-08-19T13:58:07;8.68;;;3.92;;
34373;SDS011;20637;55.770;37.592;2022-08-19T14:00:35;6.57;;;5.53;;
34373;SDS011;20637;55.770;37.592;2022-08-19T14:03:02;6.32;;;4.10;;
34373;SDS011;20637;55.770;37.592;2022-08-19T14:05:28;9.63;;;4.30;;
34373;SDS011;20637;55.770;37.592;2022-08-19T14:07:55;6.97;;;3.90;;
34373;SDS011;20637;55.770;37.592;2022-08-19T14:10:21;6.85;;;3.83;;
34373;SDS011;20637;55.770;37.592;2022-08-19T14:12:48;8.10;;;4.57;;
34373;SDS011;20637;55.770;37.592;2022-08-19T14:15:14;6.47;;;3.78;;
34373;SDS011;20637;55.770;37.592;2022-08-19T14:17:42;10.23;;;4.43;;
34373;SDS011;20637;55.770;37.592;2022-08-19T14:20:10;7.80;;;3.90;;
34373;SDS011;20637;55.770;37.592;2022-08-19T14:22:38;9.45;;;4.43;;
34373;SDS011;20637;55.770;37.592;2022-08-19T14:25:06;7.15;;;4.53;;
34373;SDS011;20637;55.770;37.592;2022-08-19T14:27:34;10.90;;;6.13;;
34373;SDS011;20637;55.770;37.592;2022-08-19T14:30:03;12.00;;;5.75;;
34373;SDS011;20637;55.770;37.592;2022-08-19T14:32:30;9.77;;;6.00;;
34373;SDS011;20637;55.770;37.592;2022-08-19T14:34:56;14.02;;;7.38;;
34373;SDS011;20637;55.770;37.592;2022-08-19T14:37:21;17.23;;;9.13;;
34373;SDS011;20637;55.770;37.592;2022-08-19T14:39:47;16.33;;;12.95;;
34373;SDS011;20637;55.770;37.592;2022-08-19T14:42:13;14.77;;;13.35;;
34373;SDS011;20637;55.770;37.592;2022-08-19T14:44:40;18.60;;;12.95;;
34373;SDS011;20637;55.770;37.592;2022-08-19T14:47:06;12.48;;;11.10;;
34373;SDS011;20637;55.770;37.592;2022-08-19T14:49:32;12.82;;;10.30;;